Maryknoll, Missouri
Current Conditions -  °F | °C
As of 3:54 AM on Friday 31 Oct 2014 (Local Time) from KSET Reporting Station
Overcast Overcast  
Wind Chill: 42°   Ceiling: 10000
Heat Index: 46°   Visibility: 9mi
Dew Point: 44°   Wind: 7mph
Humidity: 93%   Direction: 320°NW
Pressure: 30.11"   Gusts: NA
Location:  38.9362°N, 90.7728°W
Report Text: KSET 310854Z AUTO 32006KT 9SM FEW070 OVC100 08/07 A3011 RMK AO2 SLP195 T00780067 53015
Loading
Personal Weather Stations






























Interactive Weather Map
Tropical Storm Tracking
New forecast layout! Learn more

10-Day Weather Forecast

Advertisements
Track Severe Weather on mobile